Time;durP1;ratioP1;P1;durP2;ratioP2;P2;SDS_P1;SDS_P2;PMS_P1;PMS_P2;Temp;Humidity;BMP_temperature;BMP_pressure;BME280_temperature;BME280_humidity;BME280_pressure;Samples;Min_cycle;Max_cycle;Signal;HPM_P1;HPM_P2
2023/09/22 00:00:48;;;;;;;81.50;33.60;;;15.30;99.90;;;;;;4977995;28;20172;-79
2023/09/22 00:03:13;;;;;;;79.27;38.60;;;15.20;99.90;;;;;;4978206;28;20197;-79
2023/09/22 00:05:39;;;;;;;83.67;42.33;;;15.20;99.90;;;;;;4978046;28;20175;-79
2023/09/22 00:08:06;;;;;;;79.67;36.40;;;15.10;99.90;;;;;;4978581;28;20199;-79
2023/09/22 00:10:32;;;;;;;75.87;29.10;;;15.20;99.90;;;;;;4961061;28;20940;-79
2023/09/22 00:12:59;;;;;;;80.60;32.77;;;15.10;99.90;;;;;;4977675;28;20427;-79
2023/09/22 00:15:26;;;;;;;78.00;36.13;;;15.10;99.90;;;;;;4976227;28;20477;-79
2023/09/22 00:17:52;;;;;;;77.80;33.03;;;15.10;99.90;;;;;;4958752;28;20429;-79
2023/09/22 00:20:18;;;;;;;77.87;35.63;;;15.00;99.90;;;;;;4975566;28;20414;-79
2023/09/22 00:22:44;;;;;;;79.03;29.47;;;15.00;99.90;;;;;;4975351;28;20219;-79
2023/09/22 00:25:10;;;;;;;73.80;24.57;;;15.10;99.90;;;;;;4958308;28;20246;-79
2023/09/22 00:27:36;;;;;;;75.97;30.20;;;15.00;99.90;;;;;;4975574;28;20455;-78
2023/09/22 00:30:04;;;;;;;75.40;29.07;;;14.90;99.90;;;;;;4958480;28;20442;-78
2023/09/22 00:32:30;;;;;;;76.77;24.30;;;14.80;99.90;;;;;;4975363;28;20454;-79
2023/09/22 00:34:56;;;;;;;74.30;25.93;;;14.90;99.90;;;;;;4958265;28;20438;-79
2023/09/22 00:37:22;;;;;;;79.00;24.30;;;14.80;99.90;;;;;;4975378;28;20407;-79
2023/09/22 00:39:47;;;;;;;74.20;22.53;;;14.90;99.90;;;;;;4975242;28;20501;-79
2023/09/22 00:42:13;;;;;;;74.20;25.33;;;14.80;99.90;;;;;;4975213;28;20432;-79
2023/09/22 00:44:39;;;;;;;79.40;29.10;;;14.70;99.90;;;;;;4957819;28;20195;-79
2023/09/22 00:47:07;;;;;;;74.20;25.43;;;14.60;99.90;;;;;;4975288;28;20438;-79
2023/09/22 00:49:35;;;;;;;72.97;23.10;;;14.50;99.90;;;;;;4975431;28;20413;-79
2023/09/22 00:52:05;;;;;;;76.47;29.70;;;14.60;99.90;;;;;;4957343;28;20431;-79
2023/09/22 00:54:32;;;;;;;75.17;27.83;;;14.40;99.90;;;;;;4975795;28;20888;-79
2023/09/22 00:56:58;;;;;;;79.53;34.80;;;14.30;99.90;;;;;;4976042;28;20939;-79
2023/09/22 00:59:24;;;;;;;78.63;33.80;;;14.20;99.90;;;;;;4958130;28;20415;-79
2023/09/22 01:01:50;;;;;;;79.23;34.90;;;14.20;99.90;;;;;;4960179;28;20979;-79
2023/09/22 01:04:19;;;;;;;80.57;37.53;;;14.20;99.90;;;;;;4959717;28;20419;-79
2023/09/22 01:06:46;;;;;;;83.80;39.07;;;14.20;99.90;;;;;;4978072;28;20399;-79
2023/09/22 01:09:13;;;;;;;80.60;43.07;;;14.10;99.90;;;;;;4978117;28;20450;-79
2023/09/22 01:11:39;;;;;;;82.10;37.57;;;14.10;99.90;;;;;;4977557;28;20415;-79
2023/09/22 01:14:06;;;;;;;83.30;42.60;;;14.00;99.90;;;;;;4977590;28;20949;-79
2023/09/22 01:16:32;;;;;;;80.90;41.73;;;13.90;99.90;;;;;;4960431;28;20191;-79
2023/09/22 01:18:58;;;;;;;81.60;45.23;;;13.90;99.90;;;;;;4977489;28;20769;-79
2023/09/22 01:21:29;;;;;;;82.20;46.20;;;13.90;99.90;;;;;;4959980;28;21051;-80
2023/09/22 01:23:56;;;;;;;85.43;43.83;;;13.80;99.90;;;;;;4977399;28;20889;-79
2023/09/22 01:26:22;;;;;;;82.87;45.03;;;13.80;99.90;;;;;;4960172;28;20932;-79
2023/09/22 01:28:49;;;;;;;81.40;40.60;;;13.90;99.90;;;;;;4959452;28;20459;-79
2023/09/22 01:31:15;;;;;;;86.37;42.67;;;13.90;99.90;;;;;;4977232;28;20509;-80
2023/09/22 01:33:40;;;;;;;81.87;43.80;;;13.90;99.90;;;;;;4977037;28;20435;-79
2023/09/22 01:36:06;;;;;;;79.50;40.03;;;13.90;99.90;;;;;;4959549;28;20419;-79
2023/09/22 01:38:32;;;;;;;79.93;41.27;;;13.90;99.90;;;;;;4976787;28;20728;-79
2023/09/22 01:40:58;;;;;;;83.07;44.73;;;13.90;99.90;;;;;;4977149;28;20405;-80
2023/09/22 01:43:24;;;;;;;80.40;39.90;;;13.90;99.90;;;;;;4977519;28;20668;-79
2023/09/22 01:45:50;;;;;;;81.67;41.60;;;14.00;99.90;;;;;;4975840;28;20828;-79
2023/09/22 01:48:16;;;;;;;76.30;29.73;;;14.00;99.90;;;;;;4974851;28;20473;-79
2023/09/22 01:50:42;;;;;;;78.67;36.87;;;14.00;99.90;;;;;;4974530;28;20395;-79
2023/09/22 01:53:10;;;;;;;77.90;32.90;;;14.00;99.90;;;;;;4974615;28;20490;-78
2023/09/22 01:55:40;;;;;;;80.20;39.93;;;14.00;99.90;;;;;;4974760;28;20403;-79
2023/09/22 01:58:07;;;;;;;80.57;37.67;;;13.90;99.90;;;;;;4957011;28;20422;-79
2023/09/22 02:00:35;;;;;;;79.80;39.40;;;14.00;99.90;;;;;;4974595;28;20404;-79
2023/09/22 02:03:01;;;;;;;77.87;35.77;;;13.90;99.90;;;;;;4974142;28;20429;-79
2023/09/22 02:05:27;;;;;;;79.70;36.40;;;13.90;99.90;;;;;;4977979;28;20753;-79
2023/09/22 02:07:52;;;;;;;77.53;32.90;;;13.90;99.90;;;;;;4977822;28;20473;-79
2023/09/22 02:10:18;;;;;;;79.97;37.60;;;13.90;99.90;;;;;;4960583;28;20199;-79
2023/09/22 02:12:44;;;;;;;80.10;31.83;;;13.80;99.90;;;;;;4977865;28;20680;-79
2023/09/22 02:15:12;;;;;;;82.97;39.30;;;13.80;99.90;;;;;;4977869;28;20179;-79
2023/09/22 02:17:38;;;;;;;79.83;38.00;;;13.70;99.90;;;;;;4978110;28;20422;-79
2023/09/22 02:20:40;;;;;;;76.60;30.40;;;13.70;99.90;;;;;;4977923;28;20443;-79
2023/09/22 02:22:58;;;;;;;81.87;38.70;;;13.70;99.90;;;;;;4973705;28;20436;-79
2023/09/22 02:25:24;;;;;;;82.17;46.10;;;13.60;99.90;;;;;;4977914;28;20407;-78
2023/09/22 02:27:53;;;;;;;79.20;39.43;;;13.50;99.90;;;;;;4977583;28;20555;-79
2023/09/22 02:30:20;;;;;;;83.73;45.47;;;13.50;99.90;;;;;;4977945;28;20414;-79
2023/09/22 02:32:48;;;;;;;82.17;44.67;;;13.50;99.90;;;;;;4979985;28;20423;-79
2023/09/22 02:35:18;;;;;;;88.20;48.37;;;13.40;99.90;;;;;;4979918;28;20809;-79
2023/09/22 02:37:47;;;;;;;80.27;42.10;;;13.40;99.90;;;;;;4962183;28;20427;-79
2023/09/22 02:40:16;;;;;;;81.30;44.57;;;13.40;99.90;;;;;;4979524;28;20411;-79
2023/09/22 02:42:43;;;;;;;85.20;47.60;;;13.40;99.90;;;;;;4979632;28;20514;-80
2023/09/22 02:45:09;;;;;;;83.70;43.20;;;13.50;99.90;;;;;;4979324;28;20453;-79
2023/09/22 02:47:40;;;;;;;80.80;40.20;;;13.40;99.90;;;;;;4979405;28;20484;-79
2023/09/22 02:50:10;;;;;;;84.77;46.70;;;13.30;99.90;;;;;;4980562;28;20928;-79
2023/09/22 02:52:38;;;;;;;79.57;40.93;;;13.40;99.90;;;;;;4978979;28;20505;-79
2023/09/22 02:55:04;;;;;;;81.77;40.83;;;13.40;99.90;;;;;;4962143;28;20457;-79
2023/09/22 02:57:30;;;;;;;80.77;43.57;;;13.50;99.90;;;;;;4980306;28;20396;-79
2023/09/22 02:59:55;;;;;;;80.70;40.13;;;13.50;99.90;;;;;;4979794;28;20413;-79
2023/09/22 03:02:22;;;;;;;80.37;39.97;;;13.60;99.90;;;;;;4979030;28;20266;-80
2023/09/22 03:04:47;;;;;;;80.70;42.27;;;13.50;99.90;;;;;;4962043;28;20712;-79
2023/09/22 03:07:13;;;;;;;82.30;43.30;;;13.50;99.90;;;;;;4979495;28;20442;-79
2023/09/22 03:09:39;;;;;;;83.67;45.07;;;13.50;99.90;;;;;;4978972;28;20164;-79
2023/09/22 03:12:05;;;;;;;81.63;41.80;;;13.50;99.90;;;;;;4979266;28;20474;-80
2023/09/22 03:14:31;;;;;;;78.20;36.17;;;13.50;99.90;;;;;;4978436;28;20192;-79
2023/09/22 03:16:57;;;;;;;81.50;44.60;;;13.60;99.90;;;;;;4960205;28;20431;-79
2023/09/22 03:19:23;;;;;;;81.70;44.07;;;13.50;99.90;;;;;;4976855;28;20399;-79
2023/09/22 03:21:49;;;;;;;82.27;43.57;;;13.40;99.90;;;;;;4976826;28;20438;-79
2023/09/22 03:24:15;;;;;;;81.90;46.03;;;13.50;99.90;;;;;;4976777;28;20406;-79
2023/09/22 03:26:43;;;;;;;86.10;42.80;;;13.50;99.90;;;;;;4959400;28;20195;-79
2023/09/22 03:29:09;;;;;;;84.40;43.17;;;13.60;99.90;;;;;;4959316;28;20462;-79
2023/09/22 03:31:36;;;;;;;81.77;40.27;;;13.60;99.90;;;;;;4976609;28;20423;-79
2023/09/22 03:34:02;;;;;;;84.37;47.77;;;13.70;99.90;;;;;;4959376;28;20765;-79
2023/09/22 03:36:30;;;;;;;82.77;43.73;;;13.70;99.90;;;;;;4959410;28;20470;-79
2023/09/22 03:38:57;;;;;;;85.33;41.57;;;13.70;99.90;;;;;;4976292;28;20176;-79
2023/09/22 03:41:28;;;;;;;85.50;47.57;;;13.80;99.90;;;;;;4976241;28;20518;-79
2023/09/22 03:43:55;;;;;;;82.67;43.73;;;13.70;99.90;;;;;;4976571;28;20379;-79
2023/09/22 03:46:20;;;;;;;83.63;47.13;;;13.70;99.90;;;;;;4976674;28;20414;-78
2023/09/22 03:48:46;;;;;;;90.77;42.37;;;13.70;99.90;;;;;;4959097;28;20455;-79
2023/09/22 03:51:11;;;;;;;82.13;44.23;;;13.70;99.90;;;;;;4958976;28;20187;-79
2023/09/22 03:53:37;;;;;;;80.77;40.57;;;13.70;99.90;;;;;;4976527;28;20172;-79
2023/09/22 03:56:03;;;;;;;83.73;49.37;;;13.70;99.90;;;;;;4959022;28;20532;-79
2023/09/22 03:58:29;;;;;;;85.47;46.57;;;13.70;99.90;;;;;;4958898;28;20176;-79
2023/09/22 04:01:08;;;;;;;84.70;47.33;;;13.70;99.90;;;;;;4975998;28;20778;-79
2023/09/22 04:03:34;;;;;;;85.97;40.90;;;13.70;99.90;;;;;;4961296;28;20156;-79
2023/09/22 04:06:02;;;;;;;82.37;40.47;;;13.60;99.90;;;;;;4978206;28;20450;-80
2023/09/22 04:08:27;;;;;;;86.40;43.07;;;13.60;99.90;;;;;;4978903;28;20847;-79
2023/09/22 04:10:53;;;;;;;83.10;44.80;;;13.60;99.90;;;;;;4960217;28;20498;-80
2023/09/22 04:13:19;;;;;;;88.43;46.20;;;13.60;99.90;;;;;;4960615;28;20174;-79
2023/09/22 04:15:45;;;;;;;82.83;43.10;;;13.70;99.90;;;;;;4977930;28;20183;-80
2023/09/22 04:18:13;;;;;;;82.37;45.40;;;13.70;99.90;;;;;;4978294;28;20299;-79
2023/09/22 04:20:43;;;;;;;82.67;46.10;;;13.70;99.90;;;;;;4959983;28;20420;-79
2023/09/22 04:23:10;;;;;;;84.53;48.80;;;13.60;99.90;;;;;;4977713;28;20427;-79
2023/09/22 04:25:37;;;;;;;84.00;46.73;;;13.60;99.90;;;;;;4959960;28;20474;-79
2023/09/22 04:28:11;;;;;;;81.03;42.03;;;13.70;99.90;;;;;;4977194;28;20679;-79
2023/09/22 04:30:41;;;;;;;82.53;43.10;;;13.70;99.90;;;;;;4977684;28;20415;-79
2023/09/22 04:33:06;;;;;;;83.70;43.60;;;13.60;99.90;;;;;;4977984;28;20426;-79
2023/09/22 04:35:32;;;;;;;84.27;49.00;;;13.70;99.90;;;;;;4977699;28;20490;-79
2023/09/22 04:38:01;;;;;;;84.37;51.43;;;13.70;99.90;;;;;;4978037;28;20172;-80
2023/09/22 04:40:35;;;;;;;84.17;48.13;;;13.70;99.90;;;;;;4977530;28;20947;-79
2023/09/22 04:43:11;;;;;;;85.57;46.77;;;13.70;99.90;;;;;;4977162;28;20427;-80
2023/09/22 04:45:40;;;;;;;88.53;57.40;;;13.70;99.90;;;;;;4977712;28;20463;-79
2023/09/22 04:48:10;;;;;;;86.13;54.53;;;13.70;99.90;;;;;;4976570;28;20462;-79
2023/09/22 04:50:37;;;;;;;88.40;52.83;;;13.70;99.90;;;;;;4975852;28;20883;-79
2023/09/22 04:53:04;;;;;;;83.97;50.83;;;13.70;99.90;;;;;;4975440;28;20416;-79
2023/09/22 04:55:34;;;;;;;84.27;45.37;;;13.70;99.90;;;;;;4975722;28;20399;-79
2023/09/22 04:58:05;;;;;;;82.80;47.67;;;13.70;99.90;;;;;;4958394;28;20924;-79
2023/09/22 05:00:33;;;;;;;84.30;51.70;;;13.70;99.90;;;;;;4958086;28;20900;-79
2023/09/22 05:03:00;;;;;;;83.70;42.47;;;13.70;99.90;;;;;;4957738;28;20430;-79
2023/09/22 05:05:28;;;;;;;82.17;38.90;;;13.80;99.90;;;;;;4975258;28;20469;-79
2023/09/22 05:07:54;;;;;;;82.63;43.43;;;13.80;99.90;;;;;;4957956;28;21047;-79
2023/09/22 05:10:20;;;;;;;82.87;40.43;;;13.70;99.90;;;;;;4975331;28;20411;-79
2023/09/22 05:12:45;;;;;;;81.50;41.07;;;13.70;99.90;;;;;;4975163;28;20423;-79
2023/09/22 05:15:11;;;;;;;86.07;46.17;;;13.70;99.90;;;;;;4975240;28;20176;-78
2023/09/22 05:17:37;;;;;;;81.57;42.17;;;13.70;99.90;;;;;;4975239;28;20199;-79
2023/09/22 05:20:05;;;;;;;86.07;37.57;;;13.70;99.90;;;;;;4975674;28;20164;-79
2023/09/22 05:22:31;;;;;;;81.40;41.87;;;13.70;99.90;;;;;;4957772;28;20266;-79
2023/09/22 05:24:57;;;;;;;89.10;39.73;;;13.70;99.90;;;;;;4975205;28;20407;-79
2023/09/22 05:27:24;;;;;;;80.17;37.10;;;13.70;99.90;;;;;;4975178;28;20171;-79
2023/09/22 05:29:53;;;;;;;81.60;39.20;;;13.70;99.90;;;;;;4958148;28;20414;-79
2023/09/22 05:32:19;;;;;;;81.00;35.57;;;13.60;99.90;;;;;;4975520;28;21112;-78
2023/09/22 05:34:44;;;;;;;91.57;40.00;;;13.60;99.90;;;;;;4960231;28;20495;-79
2023/09/22 05:37:11;;;;;;;80.43;39.83;;;13.50;99.90;;;;;;4959567;28;20497;-80
2023/09/22 05:39:38;;;;;;;81.80;43.10;;;13.50;99.90;;;;;;4980851;28;20164;-79
2023/09/22 05:42:04;;;;;;;81.07;40.17;;;13.40;99.90;;;;;;4978439;28;20485;-78
2023/09/22 05:44:30;;;;;;;84.20;49.67;;;13.30;99.90;;;;;;4978654;28;20399;-78
2023/09/22 05:46:56;;;;;;;83.03;42.83;;;13.30;99.90;;;;;;4977450;28;20414;-77
2023/09/22 05:49:22;;;;;;;82.13;45.13;;;13.40;99.90;;;;;;4978604;28;20188;-78
2023/09/22 05:51:49;;;;;;;86.07;50.80;;;13.40;99.90;;;;;;4978044;28;20696;-78
2023/09/22 05:54:14;;;;;;;83.73;47.47;;;13.40;99.90;;;;;;4960745;28;20415;-78
2023/09/22 05:56:40;;;;;;;83.93;48.97;;;13.50;99.90;;;;;;4978229;28;20391;-78
2023/09/22 05:59:06;;;;;;;84.37;47.00;;;13.50;99.90;;;;;;4977727;28;20176;-78
2023/09/22 06:01:37;;;;;;;81.90;44.80;;;13.50;99.90;;;;;;4977850;28;20431;-77
2023/09/22 06:04:09;;;;;;;81.00;42.70;;;13.50;99.90;;;;;;4960635;28;21028;-78
2023/09/22 06:06:35;;;;;;;85.60;49.00;;;13.50;99.90;;;;;;4977941;28;20384;-78
2023/09/22 06:09:01;;;;;;;84.53;54.43;;;13.50;99.90;;;;;;4977668;28;20454;-77
2023/09/22 06:11:27;;;;;;;88.67;62.67;;;13.60;99.90;;;;;;4960220;28;20435;-78
2023/09/22 06:13:53;;;;;;;93.30;60.90;;;13.60;99.90;;;;;;4960087;28;20570;-77
2023/09/22 06:16:19;;;;;;;84.40;51.70;;;13.70;99.90;;;;;;4977397;28;20310;-77
2023/09/22 06:18:45;;;;;;;86.17;52.63;;;13.70;99.90;;;;;;4960092;28;20283;-77
2023/09/22 06:21:11;;;;;;;85.33;52.50;;;13.70;99.90;;;;;;4977568;28;20407;-77
2023/09/22 06:23:38;;;;;;;90.30;61.07;;;13.70;99.90;;;;;;4977752;28;20403;-77
2023/09/22 06:26:08;;;;;;;87.43;60.13;;;13.70;99.90;;;;;;4977810;28;20171;-77
2023/09/22 06:28:39;;;;;;;86.57;54.00;;;13.80;99.90;;;;;;4960023;28;21026;-78
2023/09/22 06:31:08;;;;;;;85.30;55.67;;;13.90;99.90;;;;;;4959970;28;20411;-77
2023/09/22 06:33:34;;;;;;;86.63;54.00;;;13.90;99.90;;;;;;4977362;28;20915;-77
2023/09/22 06:36:04;;;;;;;86.00;43.53;;;13.90;99.90;;;;;;4977397;28;20454;-77
2023/09/22 06:38:33;;;;;;;82.40;47.57;;;13.90;99.90;;;;;;4960017;28;20556;-78
2023/09/22 06:41:00;;;;;;;82.03;46.50;;;14.00;99.90;;;;;;4960163;28;20415;-77
2023/09/22 06:43:30;;;;;;;85.87;49.80;;;14.00;99.90;;;;;;4977179;28;20422;-78
2023/09/22 06:45:58;;;;;;;84.60;52.10;;;14.00;99.90;;;;;;4977145;28;20404;-77
2023/09/22 06:48:29;;;;;;;87.40;56.27;;;14.10;99.90;;;;;;4976877;28;20470;-77
2023/09/22 06:50:57;;;;;;;83.80;51.37;;;14.20;99.90;;;;;;4976480;28;20419;-78
2023/09/22 06:53:26;;;;;;;85.50;57.07;;;14.20;99.90;;;;;;4977213;28;20399;-78
2023/09/22 06:56:11;;;;;;;87.17;61.70;;;14.20;99.90;;;;;;4959688;28;20774;-78
2023/09/22 06:58:40;;;;;;;89.50;54.17;;;14.40;99.90;;;;;;4977535;28;20437;-78
2023/09/22 07:01:16;;;;;;;85.37;52.07;;;14.50;99.90;;;;;;4977258;28;20415;-78
2023/09/22 07:03:44;;;;;;;79.67;41.43;;;14.70;99.90;;;;;;4977852;28;20398;-78
2023/09/22 07:06:14;;;;;;;80.20;40.90;;;14.60;99.90;;;;;;4978406;28;20778;-78
2023/09/22 07:08:43;;;;;;;78.47;36.70;;;14.70;99.90;;;;;;4978229;28;20514;-78
2023/09/22 07:11:10;;;;;;;84.57;33.87;;;14.70;99.90;;;;;;4977521;28;20477;-78
2023/09/22 07:13:36;;;;;;;79.87;35.07;;;14.70;99.90;;;;;;4977613;28;20403;-78
2023/09/22 07:16:02;;;;;;;78.00;27.53;;;14.70;99.90;;;;;;4976861;28;20478;-78
2023/09/22 07:18:28;;;;;;;77.27;33.67;;;14.80;99.90;;;;;;4977269;28;20925;-78
2023/09/22 07:20:54;;;;;;;79.23;32.50;;;14.70;99.90;;;;;;4976903;28;20164;-78
2023/09/22 07:23:23;;;;;;;77.23;32.63;;;14.60;99.90;;;;;;4976887;28;20167;-78
2023/09/22 07:26:02;;;;;;;78.77;37.27;;;14.60;99.90;;;;;;4976888;28;20210;-78
2023/09/22 07:28:28;;;;;;;85.17;41.90;;;14.50;99.90;;;;;;4976555;28;20539;-78
2023/09/22 07:30:54;;;;;;;80.10;38.93;;;14.60;99.90;;;;;;4959484;28;20774;-78
2023/09/22 07:33:21;;;;;;;81.00;44.13;;;14.60;99.90;;;;;;4976785;28;20408;-78
2023/09/22 07:35:49;;;;;;;80.20;36.80;;;14.70;99.90;;;;;;4959018;28;20916;-78
2023/09/22 07:38:19;;;;;;;78.03;34.93;;;14.70;99.90;;;;;;4959055;28;20415;-78
2023/09/22 07:40:45;;;;;;;79.67;38.00;;;14.60;99.90;;;;;;4958792;28;20419;-78
2023/09/22 07:43:10;;;;;;;77.40;33.53;;;14.70;99.90;;;;;;4976217;28;20430;-78
2023/09/22 07:45:36;;;;;;;82.10;42.00;;;14.70;99.90;;;;;;4976704;28;20176;-78
2023/09/22 07:48:02;;;;;;;78.37;35.60;;;14.60;99.90;;;;;;4976207;28;20199;-78
2023/09/22 07:50:29;;;;;;;79.20;33.50;;;14.70;99.90;;;;;;4958671;28;20259;-77
2023/09/22 07:52:56;;;;;;;76.87;30.47;;;14.80;99.90;;;;;;4976103;28;20431;-77
2023/09/22 07:55:22;;;;;;;75.37;28.33;;;14.80;99.90;;;;;;4975934;28;20812;-77
2023/09/22 07:57:49;;;;;;;81.57;32.33;;;14.90;99.90;;;;;;4976212;28;20893;-77
2023/09/22 08:00:18;;;;;;;78.53;33.17;;;14.80;99.90;;;;;;4958527;28;20423;-77
2023/09/22 08:02:45;;;;;;;79.67;37.87;;;14.80;99.90;;;;;;4975279;28;20470;-78
2023/09/22 08:05:15;;;;;;;81.53;34.87;;;14.80;99.90;;;;;;4975791;28;20486;-78
2023/09/22 08:07:42;;;;;;;78.60;37.00;;;14.90;99.90;;;;;;4976285;28;20415;-78
2023/09/22 08:10:12;;;;;;;77.93;33.20;;;14.90;99.90;;;;;;4958704;28;20471;-78
2023/09/22 08:12:41;;;;;;;76.13;31.07;;;15.00;99.90;;;;;;4958077;28;20479;-78
2023/09/22 08:15:07;;;;;;;74.97;24.67;;;15.10;99.90;;;;;;4975867;28;20498;-77
2023/09/22 08:17:33;;;;;;;75.07;26.47;;;15.10;99.90;;;;;;4958540;28;20411;-77
2023/09/22 08:19:59;;;;;;;74.10;24.50;;;15.00;99.90;;;;;;4975835;28;20399;-78
2023/09/22 08:22:26;;;;;;;73.73;22.90;;;15.10;99.90;;;;;;4958345;28;20792;-78
2023/09/22 08:24:52;;;;;;;75.70;29.47;;;15.10;99.90;;;;;;4976083;28;20148;-78
2023/09/22 08:27:19;;;;;;;76.50;26.93;;;15.10;99.90;;;;;;4976004;28;20408;-78
2023/09/22 08:29:47;;;;;;;76.53;21.97;;;15.20;99.90;;;;;;4958349;28;20502;-78
2023/09/22 08:32:13;;;;;;;73.10;20.07;;;15.30;99.90;;;;;;4958780;28;20435;-78
2023/09/22 08:34:40;;;;;;;74.67;16.63;;;15.40;99.90;;;;;;4976304;28;20733;-78
2023/09/22 08:37:06;;;;;;;72.80;18.13;;;15.40;99.90;;;;;;4976364;28;20410;-78
2023/09/22 08:39:32;;;;;;;71.57;16.77;;;15.40;99.90;;;;;;4975983;28;20494;-78
2023/09/22 08:42:00;;;;;;;80.10;14.43;;;15.40;99.90;;;;;;4976048;28;20864;-78
2023/09/22 08:44:27;;;;;;;71.20;15.87;;;15.60;99.90;;;;;;4975984;28;20415;-78
2023/09/22 08:46:52;;;;;;;70.07;12.70;;;15.50;99.90;;;;;;4975611;28;20821;-78
2023/09/22 08:49:21;;;;;;;70.10;12.50;;;15.60;99.90;;;;;;4975732;28;20451;-78
2023/09/22 08:51:48;;;;;;;70.30;12.90;;;15.60;99.90;;;;;;4975877;28;20184;-78
2023/09/22 08:54:13;;;;;;;70.40;12.47;;;15.70;99.90;;;;;;4975026;28;20434;-78
2023/09/22 08:56:40;;;;;;;73.60;15.60;;;15.90;99.90;;;;;;4975261;28;20434;-78
2023/09/22 08:59:09;;;;;;;72.20;19.40;;;16.00;99.90;;;;;;4957634;28;20691;-78
2023/09/22 09:01:35;;;;;;;72.20;14.70;;;16.10;99.90;;;;;;4975050;28;20444;-78
2023/09/22 09:04:32;;;;;;;75.03;13.13;;;16.20;99.90;;;;;;4975300;28;20418;-78
2023/09/22 09:06:58;;;;;;;69.97;10.57;;;16.20;99.90;;;;;;4975533;28;20384;-78
2023/09/22 09:09:24;;;;;;;74.53;10.50;;;16.20;99.90;;;;;;4975186;28;20443;-78
2023/09/22 09:12:03;;;;;;;67.80;6.50;;;16.30;99.90;;;;;;4976131;28;20195;-78
2023/09/22 09:14:29;;;;;;;67.27;4.07;;;16.50;99.90;;;;;;4981500;28;20156;-78
2023/09/22 09:16:58;;;;;;;68.00;4.10;;;16.70;99.90;;;;;;4981826;28;20387;-78
2023/09/22 09:19:26;;;;;;;68.30;4.53;;;16.80;99.90;;;;;;4964108;28;20418;-78
2023/09/22 09:22:12;;;;;;;70.37;5.80;;;16.80;99.90;;;;;;4981704;28;20828;-77
2023/09/22 09:24:38;;;;;;;70.80;6.53;;;16.70;83.10;;;;;;4981661;28;20422;-78
2023/09/22 09:27:17;;;;;;;70.03;10.30;;;16.80;47.90;;;;;;4981653;28;20407;-78
2023/09/22 09:29:47;;;;;;;69.80;10.03;;;16.70;28.90;;;;;;4964081;28;20454;-77
2023/09/22 09:32:31;;;;;;;71.00;7.63;;;16.70;19.00;;;;;;4981656;28;20427;-79
2023/09/22 09:34:57;;;;;;;69.63;10.37;;;16.80;17.30;;;;;;4981209;28;20557;-78
2023/09/22 09:37:23;;;;;;;75.10;7.83;;;16.80;13.10;;;;;;4981787;28;20871;-78
2023/09/22 09:39:53;;;;;;;72.07;14.50;;;16.90;15.30;;;;;;4981724;28;20179;-78
2023/09/22 09:42:22;;;;;;;67.83;4.13;;;16.90;3.40;;;;;;4981346;28;20434;-78
2023/09/22 09:44:51;;;;;;;71.50;4.37;;;16.70;1.00;;;;;;4981381;28;20461;-78
2023/09/22 09:47:26;;;;;;;67.37;3.80;;;16.60;2.00;;;;;;4964965;28;20407;-78
2023/09/22 09:49:56;;;;;;;67.83;4.03;;;16.50;1.00;;;;;;5059916;23;20497;-78
2023/09/22 09:52:38;;;;;;;68.33;4.37;;;16.40;1.00;;;;;;4983469;28;20847;-78
2023/09/22 09:55:08;;;;;;;67.37;4.30;;;16.40;1.00;;;;;;5001198;28;20469;-77
2023/09/22 09:57:38;;;;;;;69.83;5.03;;;16.60;1.00;;;;;;5001239;28;20934;-78
2023/09/22 10:00:12;;;;;;;71.93;5.70;;;16.60;1.00;;;;;;5001810;28;20914;-78
2023/09/22 10:02:41;;;;;;;68.70;5.07;;;16.70;1.00;;;;;;5002130;28;21023;-78
2023/09/22 10:05:08;;;;;;;67.73;5.67;;;16.80;1.00;;;;;;5001413;28;20946;-78
2023/09/22 10:07:38;;;;;;;68.47;5.00;;;16.70;1.00;;;;;;4983560;28;20441;-78
2023/09/22 10:10:06;;;;;;;67.80;5.30;;;16.60;1.00;;;;;;4983986;28;20418;-78
2023/09/22 10:12:31;;;;;;;71.67;4.73;;;16.60;1.00;;;;;;5000973;28;20440;-78
2023/09/22 10:15:04;;;;;;;68.87;5.20;;;16.60;11.40;;;;;;4983375;28;20410;-78
2023/09/22 10:17:31;;;;;;;67.90;5.10;;;16.70;14.30;;;;;;5001385;28;20391;-78
2023/09/22 10:19:59;;;;;;;74.90;7.23;;;16.80;3.70;;;;;;4984173;28;20406;-78
2023/09/22 10:22:25;;;;;;;69.33;6.37;;;16.90;1.00;;;;;;4983246;28;20974;-78
2023/09/22 10:25:11;;;;;;;68.83;7.93;;;17.00;1.00;;;;;;4998241;28;20409;-78
2023/09/22 10:27:57;;;;;;;71.00;10.00;;;17.10;1.00;;;;;;4984773;28;20180;-78
2023/09/22 10:30:30;;;;;;;72.07;11.80;;;17.10;1.00;;;;;;4998104;28;20387;-78
2023/09/22 10:33:16;;;;;;;69.33;10.10;;;17.20;1.00;;;;;;4980334;28;20513;-78
2023/09/22 10:35:43;;;;;;;72.33;10.47;;;17.30;1.00;;;;;;4963671;28;20757;-78
2023/09/22 10:38:11;;;;;;;70.40;10.07;;;17.40;1.00;;;;;;4980001;28;20471;-78
2023/09/22 10:40:40;;;;;;;71.47;11.63;;;17.50;1.00;;;;;;4997944;28;20803;-78
2023/09/22 10:43:06;;;;;;;73.97;12.10;;;17.40;1.00;;;;;;4997447;28;20419;-78
2023/09/22 10:45:32;;;;;;;69.97;10.30;;;17.60;1.00;;;;;;4997082;28;20403;-78
2023/09/22 10:47:59;;;;;;;69.30;9.57;;;17.90;1.00;;;;;;4979469;28;20995;-78
2023/09/22 10:50:30;;;;;;;70.97;10.07;;;18.10;1.00;;;;;;4997159;28;20267;-78
2023/09/22 10:53:06;;;;;;;71.10;8.17;;;18.40;1.00;;;;;;4996787;28;20425;-78
2023/09/22 10:55:35;;;;;;;73.23;6.43;;;18.60;1.00;;;;;;4997708;28;20477;-78
2023/09/22 10:58:04;;;;;;;69.00;5.43;;;18.50;1.00;;;;;;4997052;28;20403;-78
2023/09/22 11:00:42;;;;;;;68.17;7.67;;;18.20;1.00;;;;;;4997251;28;20403;-78
2023/09/22 11:03:11;;;;;;;70.10;5.53;;;18.20;1.00;;;;;;4996914;28;20433;-78
2023/09/22 11:05:37;;;;;;;67.80;3.50;;;18.60;1.00;;;;;;4996725;28;20489;-77
2023/09/22 11:08:14;;;;;;;68.50;3.10;;;18.80;1.00;;;;;;4997025;28;20449;-78
2023/09/22 11:10:47;;;;;;;68.50;3.37;;;18.80;1.00;;;;;;4996994;28;20406;-78
2023/09/22 11:13:14;;;;;;;68.60;3.13;;;19.00;1.00;;;;;;4996697;28;20502;-78
2023/09/22 11:15:50;;;;;;;72.73;4.30;;;19.30;1.00;;;;;;4997095;28;20399;-78
2023/09/22 11:18:33;;;;;;;70.10;4.00;;;19.40;1.00;;;;;;4996741;28;20398;-78
2023/09/22 11:21:10;;;;;;;68.27;4.37;;;19.60;1.00;;;;;;4978949;28;20434;-78
2023/09/22 11:23:38;;;;;;;67.90;2.97;;;19.90;1.00;;;;;;4996683;28;20442;-79
2023/09/22 11:26:09;;;;;;;68.87;4.00;;;20.40;1.00;;;;;;4996743;28;20899;-78
2023/09/22 11:28:43;;;;;;;67.63;4.40;;;20.40;1.00;;;;;;4997042;28;20446;-78
2023/09/22 11:31:14;;;;;;;69.93;5.30;;;20.30;1.00;;;;;;4997892;28;20931;-79
2023/09/22 11:33:43;;;;;;;69.90;8.80;;;20.60;1.00;;;;;;4996847;28;20402;-78
2023/09/22 11:36:13;;;;;;;69.60;9.37;;;20.70;1.00;;;;;;4996995;28;20406;-78
2023/09/22 11:38:47;;;;;;;72.03;16.00;;;21.00;1.00;;;;;;4979745;28;20418;-78
2023/09/22 11:41:17;;;;;;;72.67;15.77;;;21.40;1.00;;;;;;4997047;28;20425;-79
2023/09/22 11:43:44;;;;;;;71.40;12.70;;;21.70;1.00;;;;;;4979450;28;20438;-78
2023/09/22 11:46:11;;;;;;;70.17;12.30;;;21.50;1.00;;;;;;4996879;28;20409;-78
2023/09/22 11:48:58;;;;;;;73.40;13.73;;;21.40;1.00;;;;;;4979232;28;20505;-78
2023/09/22 11:51:42;;;;;;;72.03;14.87;;;21.40;1.00;;;;;;4996369;28;20437;-79
2023/09/22 11:54:09;;;;;;;71.33;11.23;;;21.00;1.00;;;;;;4996548;28;20401;-79
2023/09/22 11:56:35;;;;;;;70.50;11.60;;;20.60;1.00;;;;;;4978948;28;20469;-78
2023/09/22 11:59:17;;;;;;;74.77;10.73;;;20.50;1.00;;;;;;4979175;28;20425;-78
2023/09/22 12:01:45;;;;;;;71.50;10.67;;;20.50;1.00;;;;;;4978662;28;20444;-78
2023/09/22 12:04:14;;;;;;;72.10;13.77;;;20.40;1.00;;;;;;4996450;28;20465;-78
2023/09/22 12:06:40;;;;;;;71.87;15.53;;;20.40;1.00;;;;;;4995973;28;20412;-79
2023/09/22 12:09:10;;;;;;;71.10;12.90;;;20.30;1.00;;;;;;4978728;28;20975;-78
2023/09/22 12:11:36;;;;;;;73.20;16.07;;;20.10;1.00;;;;;;4996170;28;20418;-78
2023/09/22 12:14:05;;;;;;;74.60;17.43;;;19.90;1.00;;;;;;4978655;28;20939;-78
2023/09/22 12:16:31;;;;;;;75.00;18.17;;;19.70;1.00;;;;;;4995523;28;20501;-78
2023/09/22 12:18:57;;;;;;;71.57;16.10;;;19.60;1.00;;;;;;4995743;28;20406;-78
2023/09/22 12:21:25;;;;;;;72.63;19.67;;;19.50;1.00;;;;;;4978361;28;20438;-78
2023/09/22 12:23:50;;;;;;;78.00;17.30;;;19.40;1.00;;;;;;4995618;28;20411;-78
2023/09/22 12:26:16;;;;;;;71.13;11.67;;;19.20;1.00;;;;;;4978116;28;20409;-78
2023/09/22 12:28:42;;;;;;;70.37;7.33;;;19.10;1.00;;;;;;4977880;28;20302;-78
2023/09/22 12:31:09;;;;;;;68.60;3.20;;;19.20;1.00;;;;;;4995587;28;20175;-78
2023/09/22 12:33:36;;;;;;;67.87;3.67;;;19.20;1.00;;;;;;4995954;28;20171;-78
2023/09/22 12:36:02;;;;;;;73.10;15.00;;;19.30;1.00;;;;;;4995602;28;20415;-78